Time;durP1;ratioP1;P1;durP2;ratioP2;P2;SDS_P1;SDS_P2;PMS_P1;PMS_P2;Temp;Humidity;BMP_temperature;BMP_pressure;BME280_temperature;BME280_humidity;BME280_pressure;Samples;Min_cycle;Max_cycle;Signal;HPM_P1;HPM_P2
2022/07/18 00:03:19;;;;;;;4.57;4.20;;;27.20;49.70;;;;;;4782179;56;21024;-30
2022/07/18 00:08:20;;;;;;;4.47;4.07;;;27.20;49.70;;;;;;4801482;56;21031;-29
2022/07/18 00:13:22;;;;;;;4.75;4.35;;;27.10;49.80;;;;;;4614856;60;21498;-28
2022/07/18 00:18:22;;;;;;;4.50;4.10;;;27.20;49.80;;;;;;4747349;56;21484;-28
2022/07/18 00:23:23;;;;;;;4.70;4.20;;;27.10;49.90;;;;;;4667374;56;21048;-31
2022/07/18 00:28:24;;;;;;;4.70;4.30;;;27.20;49.80;;;;;;4652923;56;21020;-33
2022/07/18 00:33:25;;;;;;;4.32;3.92;;;27.10;50.00;;;;;;4675183;56;21028;-31
2022/07/18 00:38:26;;;;;;;4.62;4.22;;;27.20;50.00;;;;;;4783638;56;21069;-33
2022/07/18 00:43:27;;;;;;;4.62;4.22;;;27.10;49.80;;;;;;4822075;56;21559;-32
2022/07/18 00:48:27;;;;;;;4.37;4.07;;;27.10;49.90;;;;;;4686483;56;21510;-30
2022/07/18 00:53:28;;;;;;;4.72;4.15;;;27.20;50.10;;;;;;4615076;60;21334;-29
2022/07/18 00:58:30;;;;;;;4.50;4.10;;;27.10;50.50;;;;;;4615419;60;21032;-32
2022/07/18 01:03:31;;;;;;;4.60;4.20;;;27.20;49.70;;;;;;4617408;56;21521;-33
2022/07/18 01:08:32;;;;;;;4.65;4.25;;;27.10;50.50;;;;;;4702251;56;21069;-31
2022/07/18 01:13:33;;;;;;;4.32;3.97;;;27.10;49.80;;;;;;4679275;56;21601;-36
2022/07/18 01:18:34;;;;;;;4.60;4.20;;;27.10;49.90;;;;;;4744223;56;21016;-27
2022/07/18 01:23:35;;;;;;;4.65;4.25;;;27.10;49.90;;;;;;4672837;56;21049;-30
2022/07/18 01:28:36;;;;;;;5.32;4.10;;;27.10;50.50;;;;;;4710216;56;21087;-30
2022/07/18 01:33:37;;;;;;;4.68;4.22;;;27.10;50.00;;;;;;4648380;56;21070;-29
2022/07/18 01:38:38;;;;;;;4.30;4.00;;;27.10;49.80;;;;;;4787447;56;21024;-35
2022/07/18 01:43:42;;;;;;;5.40;4.30;;;27.10;49.70;;;;;;4634685;56;21077;-30
2022/07/18 01:48:43;;;;;;;3.95;3.55;;;27.10;49.90;;;;;;4651279;56;21008;-29
2022/07/18 01:53:57;;;;;;;4.22;3.62;;;27.10;49.80;;;;;;4689405;56;21104;-29
2022/07/18 01:59:02;;;;;;;5.00;3.85;;;27.10;49.80;;;;;;4615285;58;21510;-30
2022/07/18 02:04:02;;;;;;;3.95;3.65;;;27.10;49.80;;;;;;4700077;56;21087;-35
2022/07/18 02:09:05;;;;;;;3.95;3.65;;;27.10;50.00;;;;;;4615118;60;21044;-28
2022/07/18 02:14:05;;;;;;;4.07;3.67;;;27.10;49.90;;;;;;4680718;56;21116;-29
2022/07/18 02:19:06;;;;;;;4.00;3.60;;;27.10;50.10;;;;;;4771558;56;21028;-35
2022/07/18 02:24:07;;;;;;;3.90;3.60;;;27.10;50.00;;;;;;4846200;56;21096;-32
2022/07/18 02:29:08;;;;;;;3.90;3.60;;;27.10;50.00;;;;;;4829824;56;21016;-33
2022/07/18 02:34:12;;;;;;;3.70;3.37;;;27.10;50.20;;;;;;4639131;56;21025;-30
2022/07/18 02:39:14;;;;;;;3.85;3.55;;;27.10;49.80;;;;;;4715039;56;21499;-35
2022/07/18 02:44:15;;;;;;;4.53;3.75;;;27.10;50.10;;;;;;4807246;56;21510;-35
2022/07/18 02:49:28;;;;;;;3.70;3.40;;;27.10;49.80;;;;;;4615619;57;21013;-32
2022/07/18 02:54:31;;;;;;;3.72;3.42;;;27.10;49.70;;;;;;4660439;56;21057;-29
2022/07/18 02:59:32;;;;;;;3.87;3.45;;;27.10;50.00;;;;;;4763374;56;21040;-30
2022/07/18 03:04:33;;;;;;;3.53;3.22;;;27.10;49.90;;;;;;4823175;56;21494;-32
2022/07/18 03:09:33;;;;;;;3.78;3.47;;;27.10;49.70;;;;;;4715126;56;21012;-28
2022/07/18 03:14:34;;;;;;;4.15;3.45;;;27.10;49.70;;;;;;4614876;56;21036;-30
2022/07/18 03:19:35;;;;;;;4.05;3.60;;;27.00;49.80;;;;;;4626838;56;21064;-30
2022/07/18 03:24:36;;;;;;;4.18;3.78;;;27.00;49.60;;;;;;4614687;60;21523;-32
2022/07/18 03:29:37;;;;;;;3.62;3.30;;;27.10;49.50;;;;;;4703758;56;21024;-32
2022/07/18 03:34:38;;;;;;;3.50;3.20;;;27.00;49.90;;;;;;4617254;56;21025;-31
2022/07/18 03:39:39;;;;;;;4.18;3.78;;;27.00;49.10;;;;;;4645673;56;21005;-32
2022/07/18 03:44:39;;;;;;;4.03;3.70;;;27.00;49.30;;;;;;4653610;56;21021;-29
2022/07/18 03:49:40;;;;;;;4.00;3.60;;;27.10;49.10;;;;;;4749042;56;21072;-35
2022/07/18 03:54:41;;;;;;;4.35;3.87;;;27.00;49.00;;;;;;4647259;56;21024;-33
2022/07/18 03:59:42;;;;;;;3.78;3.47;;;27.00;49.00;;;;;;4687163;56;20989;-33
2022/07/18 04:04:42;;;;;;;4.80;3.87;;;27.00;49.10;;;;;;4726804;56;21077;-29
2022/07/18 04:09:43;;;;;;;4.15;3.65;;;27.00;48.70;;;;;;4724331;56;21494;-30
2022/07/18 04:14:44;;;;;;;4.00;3.60;;;27.00;48.60;;;;;;4614847;60;21036;-32
2022/07/18 04:19:45;;;;;;;4.43;3.90;;;27.00;48.60;;;;;;4677441;56;21068;-30
2022/07/18 04:24:46;;;;;;;4.93;3.83;;;27.00;48.30;;;;;;4674321;56;21503;-30
2022/07/18 04:29:46;;;;;;;4.22;3.55;;;27.00;48.50;;;;;;4862833;56;21068;-31
2022/07/18 04:34:47;;;;;;;4.37;3.60;;;27.00;48.40;;;;;;4752674;56;21037;-31
2022/07/18 04:39:48;;;;;;;3.95;3.65;;;27.00;48.10;;;;;;4615608;60;21646;-29
2022/07/18 04:44:49;;;;;;;4.05;3.75;;;26.90;48.30;;;;;;4615489;57;21080;-29
2022/07/18 04:49:50;;;;;;;4.00;3.67;;;26.90;48.30;;;;;;4784883;56;21016;-29
2022/07/18 04:54:50;;;;;;;4.15;3.53;;;26.90;47.90;;;;;;4614648;60;21077;-30
2022/07/18 04:59:51;;;;;;;4.22;3.80;;;26.90;47.90;;;;;;4687375;56;21012;-27
2022/07/18 05:04:52;;;;;;;4.25;3.78;;;26.90;47.90;;;;;;4670940;56;21466;-27
2022/07/18 05:09:53;;;;;;;4.40;3.87;;;26.90;47.70;;;;;;4693058;56;21024;-30
2022/07/18 05:14:53;;;;;;;5.68;3.75;;;26.90;47.40;;;;;;4805758;56;21036;-31
2022/07/18 05:19:54;;;;;;;4.20;3.80;;;26.90;47.60;;;;;;4682707;56;21017;-30
2022/07/18 05:24:55;;;;;;;4.90;4.40;;;26.90;47.60;;;;;;4614167;60;21531;-31
2022/07/18 05:29:56;;;;;;;6.05;4.07;;;26.90;47.70;;;;;;4615036;60;21471;-28
2022/07/18 05:34:57;;;;;;;4.70;4.20;;;26.90;47.60;;;;;;4787501;56;21041;-29
2022/07/18 05:39:58;;;;;;;4.50;4.10;;;26.90;47.50;;;;;;4615382;56;21017;-29
2022/07/18 05:44:58;;;;;;;6.05;4.55;;;26.90;47.50;;;;;;4615168;60;21012;-29
2022/07/18 05:49:59;;;;;;;5.45;4.40;;;26.90;47.30;;;;;;4670318;56;21017;-31
2022/07/18 05:55:00;;;;;;;5.80;4.70;;;26.90;47.40;;;;;;4614601;60;21494;-28
2022/07/18 06:00:05;;;;;;;5.28;4.78;;;26.90;47.40;;;;;;4809843;56;21594;-30
2022/07/18 06:05:07;;;;;;;5.82;4.75;;;26.90;47.50;;;;;;4846667;56;21072;-32
2022/07/18 06:10:09;;;;;;;5.93;5.32;;;26.90;47.40;;;;;;4717564;56;21104;-29
2022/07/18 06:15:11;;;;;;;6.00;5.40;;;26.90;47.30;;;;;;4719979;56;21029;-31
2022/07/18 06:20:12;;;;;;;6.32;5.40;;;26.90;47.40;;;;;;4975350;56;21053;-29
2022/07/18 06:25:13;;;;;;;6.28;5.47;;;26.90;47.00;;;;;;4761555;56;21101;-31
2022/07/18 06:30:14;;;;;;;9.35;5.10;;;26.90;47.30;;;;;;4791082;56;21085;-29
2022/07/18 06:35:15;;;;;;;6.53;5.68;;;26.90;47.20;;;;;;4633339;56;21020;-29
2022/07/18 06:40:15;;;;;;;7.53;5.72;;;26.90;47.30;;;;;;4838414;56;21068;-29
2022/07/18 06:45:16;;;;;;;8.18;5.55;;;26.90;47.20;;;;;;4615354;60;21515;-29
2022/07/18 06:50:17;;;;;;;6.07;5.47;;;26.90;47.20;;;;;;4656044;56;21035;-31
2022/07/18 06:55:18;;;;;;;7.65;6.05;;;26.90;47.20;;;;;;4614237;60;21541;-29
2022/07/18 07:00:19;;;;;;;23.62;14.80;;;26.90;47.10;;;;;;4700125;56;21099;-26
2022/07/18 07:05:21;;;;;;;21.20;13.98;;;26.90;45.10;;;;;;4642362;56;21649;-29
2022/07/18 07:10:22;;;;;;;19.20;13.30;;;26.90;45.40;;;;;;4626272;56;21021;-28
2022/07/18 07:15:23;;;;;;;18.83;13.50;;;26.90;45.40;;;;;;4613492;60;21033;-30
2022/07/18 07:20:24;;;;;;;26.15;16.83;;;26.90;45.80;;;;;;4621946;56;21551;-29
2022/07/18 07:25:26;;;;;;;27.25;18.48;;;26.90;41.80;;;;;;4698728;56;21021;-27
2022/07/18 07:30:28;;;;;;;21.77;15.63;;;26.80;41.10;;;;;;4642237;56;21012;-31
2022/07/18 07:35:29;;;;;;;22.37;14.98;;;26.80;40.20;;;;;;4800894;56;21088;-27
2022/07/18 07:40:30;;;;;;;22.62;16.12;;;26.80;40.40;;;;;;4781461;56;21000;-28
2022/07/18 07:45:31;;;;;;;35.20;25.37;;;26.80;40.60;;;;;;4670066;56;21074;-29
2022/07/18 07:50:32;;;;;;;36.72;23.08;;;26.80;40.60;;;;;;4655939;56;21119;-28
2022/07/18 07:55:33;;;;;;;34.78;22.33;;;26.80;40.40;;;;;;4684156;56;21068;-29
2022/07/18 08:00:33;;;;;;;32.92;20.30;;;26.80;39.30;;;;;;4614969;60;21016;-29
2022/07/18 08:05:37;;;;;;;49.15;34.88;;;26.80;39.70;;;;;;4728055;56;21546;-28
2022/07/18 08:10:38;;;;;;;47.35;30.90;;;26.80;39.80;;;;;;4734633;56;21454;-25
2022/07/18 08:15:40;;;;;;;35.78;25.60;;;26.80;40.00;;;;;;4647418;56;21017;-26
2022/07/18 08:20:40;;;;;;;31.50;23.75;;;26.80;38.20;;;;;;4642309;56;21037;-26
2022/07/18 08:25:44;;;;;;;29.00;22.23;;;26.80;36.50;;;;;;4614901;60;21021;-30
2022/07/18 08:30:45;;;;;;;28.85;20.50;;;26.80;36.90;;;;;;4614969;60;21092;-29
2022/07/18 08:35:46;;;;;;;32.60;22.23;;;26.90;37.30;;;;;;4635079;56;21012;-27
2022/07/18 08:40:52;;;;;;;30.52;22.42;;;26.90;37.80;;;;;;4629678;56;21522;-28
2022/07/18 08:46:00;;;;;;;;;;;26.90;37.70;;;;;;4656717;56;21052;-29
2022/07/18 08:51:01;;;;;;;40.28;27.70;;;26.90;37.40;;;;;;4614960;60;20070;-31
2022/07/18 08:56:02;;;;;;;44.03;28.23;;;27.00;37.50;;;;;;4615006;56;21518;-29
2022/07/18 09:01:03;;;;;;;40.15;27.98;;;27.00;37.80;;;;;;4699210;56;21136;-28
2022/07/18 09:06:12;;;;;;;39.47;27.30;;;27.00;38.40;;;;;;4614642;58;21005;-28
2022/07/18 09:11:13;;;;;;;41.92;28.33;;;27.00;38.60;;;;;;4614460;56;21165;-29
2022/07/18 09:16:15;;;;;;;40.58;27.35;;;27.00;38.60;;;;;;4660667;56;21530;-29
2022/07/18 09:21:21;;;;;;;41.42;27.35;;;27.10;38.70;;;;;;4615352;56;21522;-31
2022/07/18 09:26:41;;;;;;;;;;;27.10;38.80;;;;;;4643216;56;21125;-30
2022/07/18 09:31:49;;;;;;;45.28;29.05;;;27.10;38.90;;;;;;4696984;56;20059;-30
2022/07/18 09:36:56;;;;;;;47.55;32.20;;;27.10;39.00;;;;;;4642782;56;21004;-29
2022/07/18 09:42:17;;;;;;;49.97;33.53;;;27.10;38.10;;;;;;4620222;56;21562;-29
2022/07/18 09:47:18;;;;;;;48.85;32.17;;;27.10;37.50;;;;;;4633945;56;21000;-31
2022/07/18 09:52:19;;;;;;;42.22;29.95;;;27.10;37.30;;;;;;4614309;60;21084;-29
2022/07/18 09:57:25;;;;;;;39.72;28.52;;;27.20;37.40;;;;;;4630596;56;20992;-28
2022/07/18 10:02:26;;;;;;;44.65;27.42;;;27.20;37.60;;;;;;4626888;56;20985;-30
2022/07/18 10:07:28;;;;;;;41.22;26.85;;;27.20;38.10;;;;;;4615139;56;21013;-30
2022/07/18 10:12:30;;;;;;;39.75;27.95;;;27.20;38.60;;;;;;4614578;56;21477;-26
2022/07/18 10:17:31;;;;;;;36.90;25.27;;;27.20;38.80;;;;;;4614868;56;21064;-35
2022/07/18 10:22:54;;;;;;;38.92;25.98;;;27.20;39.00;;;;;;4614255;60;21114;-30
2022/07/18 10:28:08;;;;;;;33.05;25.20;;;27.10;39.20;;;;;;4777702;56;21486;-32
2022/07/18 10:33:45;;;;;;;35.10;24.90;;;27.10;39.30;;;;;;4614625;56;21029;-31
2022/07/18 10:41:00;;;;;;;32.78;23.48;;;27.10;39.60;;;;;;4755531;56;21001;-30
2022/07/18 10:46:02;;;;;;;30.88;22.65;;;27.10;39.90;;;;;;4717825;56;21109;-29
2022/07/18 10:51:17;;;;;;;34.33;24.48;;;27.10;40.10;;;;;;4836452;56;21088;-30
2022/07/18 10:56:18;;;;;;;33.95;24.12;;;27.10;40.30;;;;;;4860127;56;20993;-34
2022/07/18 11:01:20;;;;;;;32.58;23.42;;;27.10;40.50;;;;;;4615085;57;21012;-30
2022/07/18 11:06:21;;;;;;;30.58;22.17;;;27.10;40.60;;;;;;4763993;56;20993;-29
2022/07/18 11:11:22;;;;;;;36.00;22.92;;;27.10;40.70;;;;;;4747909;56;21029;-31
2022/07/18 11:16:25;;;;;;;30.58;22.27;;;27.10;41.50;;;;;;4614958;60;21534;-30
2022/07/18 11:21:35;;;;;;;31.30;22.60;;;27.00;40.90;;;;;;4679530;56;21084;-30
2022/07/18 11:26:38;;;;;;;25.58;21.87;;;27.00;41.10;;;;;;4614942;56;21665;-29
2022/07/18 11:31:57;;;;;;;30.58;22.05;;;27.00;41.20;;;;;;4614825;60;21024;-30
2022/07/18 11:36:59;;;;;;;27.42;21.00;;;27.00;41.30;;;;;;4615301;60;21005;-29
2022/07/18 11:42:01;;;;;;;26.73;21.23;;;27.00;41.50;;;;;;4615440;60;21479;-31
2022/07/18 11:47:07;;;;;;;27.00;20.60;;;27.00;41.60;;;;;;4777553;56;21614;-31
2022/07/18 11:52:08;;;;;;;26.73;21.15;;;27.00;41.60;;;;;;4615033;60;21483;-30
2022/07/18 11:57:09;;;;;;;28.10;21.30;;;27.00;41.80;;;;;;4980616;56;21008;-29
2022/07/18 12:02:11;;;;;;;25.88;21.02;;;27.00;41.80;;;;;;4643387;56;21134;-30
2022/07/18 12:07:24;;;;;;;25.30;20.33;;;27.00;41.90;;;;;;4614980;60;21459;-29
2022/07/18 12:12:25;;;;;;;26.15;20.27;;;27.00;42.00;;;;;;4614797;60;21028;-29
2022/07/18 12:17:28;;;;;;;26.45;20.23;;;27.00;42.10;;;;;;4664424;56;21087;-28
2022/07/18 12:22:28;;;;;;;26.95;20.17;;;27.00;42.20;;;;;;4685589;56;21084;-33
2022/07/18 12:27:38;;;;;;;23.15;19.17;;;27.00;42.30;;;;;;4720430;56;21490;-29
2022/07/18 12:32:59;;;;;;;25.45;19.67;;;27.10;42.40;;;;;;4614104;56;21578;-28
2022/07/18 12:38:09;;;;;;;23.85;19.42;;;27.00;42.40;;;;;;4811565;56;21547;-29
2022/07/18 12:43:14;;;;;;;24.87;19.67;;;27.00;42.50;;;;;;4686957;56;21052;-31
2022/07/18 12:48:15;;;;;;;24.77;19.62;;;27.00;42.50;;;;;;4623098;56;21067;-32
2022/07/18 12:53:16;;;;;;;23.55;19.45;;;27.00;42.60;;;;;;4678983;56;21072;-30
2022/07/18 12:58:17;;;;;;;22.35;18.65;;;27.00;42.70;;;;;;4615065;60;21109;-32
2022/07/18 13:03:18;;;;;;;24.25;18.90;;;27.10;42.80;;;;;;4780815;56;21072;-30
2022/07/18 13:08:19;;;;;;;24.58;19.15;;;27.00;42.80;;;;;;4644937;56;21077;-27
2022/07/18 13:13:20;;;;;;;23.80;19.17;;;27.10;43.00;;;;;;4614479;60;21584;-31
2022/07/18 13:18:21;;;;;;;23.87;19.33;;;27.00;43.00;;;;;;4730195;56;21089;-26
2022/07/18 13:23:22;;;;;;;21.33;18.00;;;27.10;43.00;;;;;;4614135;60;21040;-32
2022/07/18 13:28:22;;;;;;;22.10;18.77;;;27.10;43.10;;;;;;4614816;56;21033;-35
2022/07/18 13:33:23;;;;;;;21.58;17.77;;;27.00;43.10;;;;;;4614856;56;21025;-30
2022/07/18 13:38:24;;;;;;;24.05;19.10;;;27.10;43.20;;;;;;4679184;56;21090;-29
2022/07/18 13:43:25;;;;;;;22.00;18.37;;;27.10;43.20;;;;;;4788298;56;21012;-31
2022/07/18 13:48:25;;;;;;;22.95;18.90;;;27.10;43.30;;;;;;4615078;56;21094;-29
2022/07/18 13:53:27;;;;;;;20.98;17.73;;;27.10;43.30;;;;;;4629215;56;21490;-32
2022/07/18 13:58:27;;;;;;;19.23;17.10;;;27.10;43.40;;;;;;4709636;56;21017;-29
2022/07/18 14:03:28;;;;;;;20.62;17.60;;;27.10;43.50;;;;;;4623839;56;21020;-29
2022/07/18 14:08:29;;;;;;;21.23;17.65;;;27.10;43.50;;;;;;4615311;60;21012;-31
2022/07/18 14:13:30;;;;;;;19.40;17.30;;;27.10;43.50;;;;;;4719152;56;21102;-29
2022/07/18 14:18:30;;;;;;;19.98;16.92;;;27.10;43.60;;;;;;4763995;56;21016;-29
2022/07/18 14:23:31;;;;;;;20.58;17.17;;;27.10;43.60;;;;;;4736325;56;21574;-30
2022/07/18 14:28:32;;;;;;;22.60;17.92;;;27.10;43.70;;;;;;4614811;60;21562;-32
2022/07/18 14:33:34;;;;;;;21.10;18.15;;;27.10;43.80;;;;;;4730059;56;21025;-36
2022/07/18 14:38:35;;;;;;;19.12;16.95;;;27.10;43.70;;;;;;4711672;56;21020;-31
2022/07/18 14:43:36;;;;;;;21.40;17.50;;;27.10;43.80;;;;;;4680366;56;21523;-33
2022/07/18 14:48:37;;;;;;;18.67;16.67;;;27.10;43.90;;;;;;4908119;56;21088;-33
2022/07/18 14:53:38;;;;;;;18.80;16.80;;;27.10;43.90;;;;;;5050122;56;21563;-32
2022/07/18 14:58:38;;;;;;;19.67;16.77;;;27.10;43.90;;;;;;4614984;60;21096;-34
2022/07/18 15:03:39;;;;;;;18.95;16.67;;;27.10;43.90;;;;;;4689948;56;21535;-28
2022/07/18 15:08:40;;;;;;;18.67;16.67;;;27.10;44.00;;;;;;4626229;56;21068;-31
2022/07/18 15:13:41;;;;;;;19.62;16.45;;;27.10;44.40;;;;;;4623706;56;21173;-31
2022/07/18 15:18:42;;;;;;;18.10;15.82;;;27.10;44.20;;;;;;4615390;60;21013;-31
2022/07/18 15:23:42;;;;;;;18.30;16.40;;;27.10;44.10;;;;;;4614424;60;21080;-33
2022/07/18 15:28:43;;;;;;;20.25;17.37;;;27.10;44.10;;;;;;4684470;56;21039;-27
2022/07/18 15:33:44;;;;;;;18.37;15.98;;;27.10;44.20;;;;;;4614861;56;21091;-30
2022/07/18 15:38:45;;;;;;;19.25;16.50;;;27.10;44.20;;;;;;4756953;56;21012;-30
2022/07/18 15:43:46;;;;;;;18.15;15.98;;;27.10;44.20;;;;;;4649116;56;21183;-30
2022/07/18 15:48:48;;;;;;;17.50;15.48;;;27.10;44.20;;;;;;4846035;56;21086;-31
2022/07/18 15:53:49;;;;;;;17.92;15.50;;;27.10;44.80;;;;;;4640911;56;21522;-32
2022/07/18 15:58:49;;;;;;;17.75;15.75;;;27.10;44.20;;;;;;4680662;56;21017;-31
2022/07/18 16:03:50;;;;;;;18.25;15.38;;;27.10;44.40;;;;;;4677595;56;21012;-30
2022/07/18 16:08:51;;;;;;;17.92;15.98;;;27.10;44.40;;;;;;4615247;60;21028;-30
2022/07/18 16:13:52;;;;;;;18.27;16.23;;;27.10;44.40;;;;;;4630024;56;21094;-29
2022/07/18 16:18:52;;;;;;;17.70;15.27;;;27.10;44.50;;;;;;4654570;56;21056;-30
2022/07/18 16:23:53;;;;;;;17.95;15.27;;;27.10;44.40;;;;;;5073085;56;21503;-31
2022/07/18 16:28:54;;;;;;;16.80;15.02;;;27.10;44.50;;;;;;4623159;56;21036;-31
2022/07/18 16:33:55;;;;;;;17.90;15.60;;;27.10;44.50;;;;;;4848573;56;21526;-33
2022/07/18 16:38:56;;;;;;;18.08;15.07;;;27.10;45.00;;;;;;4649345;56;21025;-32
2022/07/18 16:44:00;;;;;;;16.27;14.10;;;27.10;44.60;;;;;;4739288;56;21011;-30
2022/07/18 16:49:01;;;;;;;16.80;15.10;;;27.10;44.70;;;;;;4749197;56;21060;-30
2022/07/18 16:54:02;;;;;;;17.00;15.20;;;27.10;45.30;;;;;;4614673;60;21150;-30
2022/07/18 16:59:04;;;;;;;17.17;14.93;;;27.10;44.70;;;;;;4638533;56;21061;-30
2022/07/18 17:04:05;;;;;;;17.80;15.55;;;27.20;44.80;;;;;;4696917;56;20997;-30
2022/07/18 17:09:07;;;;;;;18.90;15.25;;;27.20;44.80;;;;;;4740409;56;21025;-32
2022/07/18 17:14:08;;;;;;;17.48;15.05;;;27.10;44.80;;;;;;4691447;56;21174;-29
2022/07/18 17:19:09;;;;;;;16.37;14.63;;;27.20;44.90;;;;;;4867473;56;21055;-29
2022/07/18 17:24:11;;;;;;;15.95;14.25;;;27.10;44.90;;;;;;4871217;56;21514;-30
2022/07/18 17:29:12;;;;;;;16.25;14.27;;;27.20;45.00;;;;;;5068053;56;21097;-30
2022/07/18 17:34:15;;;;;;;16.12;14.43;;;27.20;45.00;;;;;;4614540;60;21097;-28
2022/07/18 17:39:16;;;;;;;16.80;15.00;;;27.20;45.10;;;;;;4832673;56;21451;-30
2022/07/18 17:44:20;;;;;;;16.23;14.20;;;27.20;45.10;;;;;;4615469;60;21048;-31
2022/07/18 17:49:21;;;;;;;16.62;14.90;;;27.20;45.10;;;;;;4640669;56;21491;-30
2022/07/18 17:54:23;;;;;;;15.23;13.62;;;27.20;45.20;;;;;;4614622;60;21001;-29
2022/07/18 17:59:24;;;;;;;16.15;14.15;;;27.20;45.20;;;;;;5006885;56;21102;-30
2022/07/18 18:04:26;;;;;;;16.50;14.80;;;27.20;45.90;;;;;;4665272;56;21020;-31
2022/07/18 18:09:27;;;;;;;16.45;14.70;;;27.20;45.20;;;;;;4648212;56;21012;-30
2022/07/18 18:14:28;;;;;;;15.85;14.15;;;27.20;45.20;;;;;;5028693;56;21097;-31
2022/07/18 18:19:30;;;;;;;16.27;14.55;;;27.20;45.30;;;;;;4619936;56;21088;-31
2022/07/18 18:24:32;;;;;;;15.13;13.52;;;27.20;45.20;;;;;;4615172;57;21060;-28
2022/07/18 18:29:32;;;;;;;15.20;13.60;;;27.20;45.20;;;;;;4615829;60;21024;-31
2022/07/18 18:34:33;;;;;;;15.90;14.20;;;27.20;45.20;;;;;;4690609;56;21040;-31
2022/07/18 18:39:36;;;;;;;14.60;13.10;;;27.20;45.20;;;;;;4834115;56;21598;-30
2022/07/18 18:44:39;;;;;;;16.02;14.30;;;27.20;45.20;;;;;;4923102;56;21495;-31
2022/07/18 18:49:40;;;;;;;16.23;14.48;;;27.20;45.20;;;;;;4751009;56;21016;-31
2022/07/18 18:54:42;;;;;;;15.93;14.25;;;27.20;45.20;;;;;;4776515;56;21511;-29
2022/07/18 18:59:42;;;;;;;16.02;14.32;;;27.20;45.10;;;;;;4731565;56;21127;-29
2022/07/18 19:04:43;;;;;;;15.40;13.80;;;27.20;45.10;;;;;;4615698;60;21037;-27
2022/07/18 19:09:44;;;;;;;14.82;13.15;;;27.20;45.10;;;;;;4615991;56;21077;-31
2022/07/18 19:14:45;;;;;;;15.38;13.68;;;27.20;45.00;;;;;;4635534;56;21605;-29
2022/07/18 19:19:46;;;;;;;14.82;13.32;;;27.20;45.00;;;;;;4617199;56;21087;-30
2022/07/18 19:24:47;;;;;;;16.62;13.43;;;27.20;45.60;;;;;;4645446;56;21088;-28
2022/07/18 19:29:47;;;;;;;14.85;13.10;;;27.20;45.00;;;;;;4652468;56;21068;-30
2022/07/18 19:34:48;;;;;;;14.87;13.00;;;27.20;45.00;;;;;;4614786;60;21545;-33
2022/07/18 19:39:49;;;;;;;14.15;12.55;;;27.20;44.90;;;;;;4705218;56;21017;-34
2022/07/18 19:44:50;;;;;;;14.48;13.07;;;27.20;45.00;;;;;;4719472;56;21562;-34
2022/07/18 19:49:51;;;;;;;15.15;12.65;;;27.20;44.90;;;;;;4947365;56;21053;-29
2022/07/18 19:54:52;;;;;;;13.15;11.80;;;27.20;44.90;;;;;;4637595;56;21000;-29
2022/07/18 19:59:52;;;;;;;14.38;12.88;;;27.20;45.00;;;;;;4810438;56;21008;-29
2022/07/18 20:04:53;;;;;;;14.00;11.98;;;27.20;44.90;;;;;;4716370;56;21008;-29
2022/07/18 20:09:54;;;;;;;13.95;12.43;;;27.20;44.90;;;;;;4713882;56;21141;-29
2022/07/18 20:14:55;;;;;;;13.70;12.30;;;27.20;44.90;;;;;;4842147;56;21068;-29
2022/07/18 20:19:56;;;;;;;14.32;12.82;;;27.20;44.90;;;;;;4707993;56;21475;-31
2022/07/18 20:24:56;;;;;;;13.90;12.48;;;27.20;44.90;;;;;;4614332;60;21085;-31
2022/07/18 20:29:57;;;;;;;14.40;11.80;;;27.20;44.90;;;;;;4744260;56;21077;-36
2022/07/18 20:35:01;;;;;;;15.00;12.02;;;27.20;44.90;;;;;;4843953;56;21638;-31
2022/07/18 20:40:04;;;;;;;15.88;11.95;;;27.20;45.00;;;;;;4615097;60;21021;-30
2022/07/18 20:45:07;;;;;;;12.48;10.65;;;27.10;44.80;;;;;;4619284;56;21088;-29
2022/07/18 20:50:08;;;;;;;13.80;11.60;;;27.20;44.80;;;;;;4677633;56;21008;-36
2022/07/18 20:55:09;;;;;;;15.48;11.38;;;27.20;44.80;;;;;;4744600;56;21574;-31
2022/07/18 21:00:11;;;;;;;13.77;11.88;;;27.20;44.90;;;;;;4714582;56;21148;-35
2022/07/18 21:05:12;;;;;;;13.40;11.57;;;27.10;44.70;;;;;;4876107;56;21055;-30
2022/07/18 21:10:13;;;;;;;14.27;11.05;;;27.10;44.70;;;;;;4831708;56;21068;-30
2022/07/18 21:15:14;;;;;;;11.98;10.38;;;27.10;44.60;;;;;;4614719;56;21585;-29
2022/07/18 21:20:20;;;;;;;12.15;10.18;;;27.10;44.60;;;;;;4615009;57;21502;-29
2022/07/18 21:25:21;;;;;;;11.98;10.48;;;27.10;44.60;;;;;;4718551;56;21017;-27
2022/07/18 21:30:22;;;;;;;13.55;10.75;;;27.10;44.50;;;;;;4615563;60;21539;-28
2022/07/18 21:35:23;;;;;;;13.25;10.13;;;27.10;44.70;;;;;;4614247;60;21028;-29
2022/07/18 21:40:24;;;;;;;12.80;10.07;;;27.10;44.70;;;;;;4779640;56;21081;-34
2022/07/18 21:45:27;;;;;;;10.85;9.75;;;27.10;44.80;;;;;;4742507;56;21088;-30
2022/07/18 21:50:27;;;;;;;11.23;10.00;;;27.10;44.80;;;;;;4615581;60;21506;-31
2022/07/18 21:55:28;;;;;;;10.60;9.50;;;27.10;44.90;;;;;;4836394;56;21056;-29
2022/07/18 22:00:29;;;;;;;11.65;9.73;;;27.10;45.70;;;;;;4615269;60;21239;-29
2022/07/18 22:05:30;;;;;;;10.25;9.20;;;27.10;45.00;;;;;;4955777;56;21028;-28
2022/07/18 22:10:33;;;;;;;10.70;9.57;;;27.10;45.10;;;;;;4620129;56;21136;-29
2022/07/18 22:15:34;;;;;;;12.65;9.98;;;27.10;45.20;;;;;;4651891;56;21116;-29
2022/07/18 22:20:34;;;;;;;10.60;9.50;;;27.10;45.20;;;;;;4712449;56;21028;-30
2022/07/18 22:25:35;;;;;;;11.50;9.43;;;27.10;45.20;;;;;;4756599;56;21077;-30
2022/07/18 22:30:36;;;;;;;11.10;9.15;;;27.10;45.20;;;;;;4772249;56;21011;-32
2022/07/18 22:35:37;;;;;;;10.32;9.02;;;27.10;45.30;;;;;;4832851;56;21577;-31
2022/07/18 22:40:38;;;;;;;10.40;9.30;;;27.10;45.40;;;;;;4844360;56;21025;-32
2022/07/18 22:45:39;;;;;;;11.23;9.65;;;27.10;45.70;;;;;;5055080;56;21024;-31
2022/07/18 22:50:40;;;;;;;10.20;9.02;;;27.10;45.40;;;;;;4615318;56;21523;-32
2022/07/18 22:55:41;;;;;;;10.50;9.30;;;27.10;45.50;;;;;;4655007;56;21108;-31
2022/07/18 23:00:43;;;;;;;10.98;8.93;;;27.10;45.50;;;;;;4655323;56;21093;-31
2022/07/18 23:05:44;;;;;;;9.93;8.93;;;27.10;45.50;;;;;;4708701;56;21064;-32
2022/07/18 23:10:45;;;;;;;9.35;8.35;;;27.10;45.50;;;;;;4906061;56;21008;-33
2022/07/18 23:15:46;;;;;;;10.25;8.55;;;27.10;45.60;;;;;;4614650;60;21040;-33
2022/07/18 23:20:47;;;;;;;9.63;8.63;;;27.10;45.60;;;;;;4840251;56;21036;-33
2022/07/18 23:25:48;;;;;;;9.98;8.73;;;27.10;45.70;;;;;;4655147;56;21514;-30
2022/07/18 23:30:48;;;;;;;9.63;8.63;;;27.10;45.80;;;;;;4615762;60;21032;-31
2022/07/18 23:35:49;;;;;;;9.23;8.32;;;27.10;45.70;;;;;;4614830;60;21032;-31
2022/07/18 23:40:50;;;;;;;9.43;8.30;;;27.10;45.90;;;;;;4812843;56;21024;-30
2022/07/18 23:45:51;;;;;;;8.93;8.02;;;27.10;45.80;;;;;;4615131;60;21009;-30
2022/07/18 23:50:52;;;;;;;10.40;8.30;;;27.10;45.80;;;;;;4890056;56;21534;-30
2022/07/18 23:55:53;;;;;;;8.73;7.82;;;27.10;45.90;;;;;;4625637;56;21104;-31
